Time;durP1;ratioP1;P1;durP2;ratioP2;P2;SDS_P1;SDS_P2;PMS_P1;PMS_P2;Temp;Humidity;BMP_temperature;BMP_pressure;BME280_temperature;BME280_humidity;BME280_pressure;Samples;Min_cycle;Max_cycle;Signal;HPM_P1;HPM_P2
2021/05/27 00:00:54;;;;;;;9.90;5.05;;;;;;;9.26;78.83;100191.23;1634505;86;26067;-65
2021/05/27 00:03:20;;;;;;;8.00;5.42;;;;;;;9.30;78.80;100190.62;1627919;86;25677;-67
2021/05/27 00:05:46;;;;;;;14.03;5.72;;;;;;;9.31;78.82;100186.54;1625091;86;27404;-65
2021/05/27 00:08:12;;;;;;;10.43;5.50;;;;;;;9.32;78.84;100184.73;1632238;86;25670;-65
2021/05/27 00:10:37;;;;;;;11.88;5.60;;;;;;;9.35;78.85;100192.15;1626525;86;25668;-65
2021/05/27 00:13:04;;;;;;;9.98;5.62;;;;;;;9.36;78.88;100189.87;1628892;86;26752;-65
2021/05/27 00:15:32;;;;;;;13.03;6.03;;;;;;;9.37;78.85;100187.59;1627841;86;25567;-65
2021/05/27 00:18:01;;;;;;;8.25;5.03;;;;;;;9.39;78.88;100194.22;1633764;86;27433;-65
2021/05/27 00:20:28;;;;;;;7.55;4.95;;;;;;;9.40;78.93;100187.45;1623547;86;25579;-65
2021/05/27 00:22:54;;;;;;;8.10;5.40;;;;;;;9.41;78.90;100189.19;1630686;86;25694;-65
2021/05/27 00:25:20;;;;;;;13.40;5.00;;;;;;;9.44;78.93;100187.72;1629444;86;25794;-65
2021/05/27 00:27:48;;;;;;;8.30;4.85;;;;;;;9.47;79.03;100197.88;1632867;86;26297;-65
2021/05/27 00:30:18;;;;;;;10.50;5.05;;;;;;;9.49;78.97;100197.34;1634518;86;27494;-65
2021/05/27 00:32:46;;;;;;;7.58;4.53;;;;;;;9.52;79.01;100203.88;1625176;86;25716;-65
2021/05/27 00:35:13;;;;;;;10.20;5.30;;;;;;;9.51;78.97;100199.00;1625189;85;26421;-65
2021/05/27 00:37:40;;;;;;;5.92;4.75;;;;;;;9.51;78.98;100204.36;1632753;86;27807;-65
2021/05/27 00:40:10;;;;;;;9.25;5.22;;;;;;;9.51;78.98;100209.70;1629733;86;25589;-65
2021/05/27 00:42:37;;;;;;;13.55;4.87;;;;;;;9.52;79.09;100210.57;1629390;86;27557;-65
2021/05/27 00:45:11;;;;;;;8.10;4.08;;;;;;;9.48;79.66;100201.82;1624027;86;25620;-65
2021/05/27 00:47:39;;;;;;;6.92;4.25;;;;;;;9.46;79.21;100207.70;1630506;86;25605;-65
2021/05/27 00:50:20;;;;;;;8.73;3.83;;;;;;;9.43;79.21;100200.69;1624808;86;25792;-65
2021/05/27 00:52:40;;;;;;;7.92;4.08;;;;;;;9.43;79.18;100195.34;1625067;86;25640;-65
2021/05/27 00:55:08;;;;;;;5.87;3.55;;;;;;;9.42;79.20;100211.46;1634997;86;29596;-64
2021/05/27 00:57:39;;;;;;;5.37;3.27;;;;;;;9.41;79.18;100207.92;1630507;86;25662;-65
2021/05/27 01:00:10;;;;;;;7.58;4.17;;;;;;;9.41;79.22;100217.28;1621210;86;25726;-64
2021/05/27 01:02:37;;;;;;;8.18;3.98;;;;;;;9.41;79.29;100212.40;1634729;86;25872;-65
2021/05/27 01:05:08;;;;;;;5.95;3.27;;;;;;;9.41;79.37;100216.41;1628257;86;26444;-64
2021/05/27 01:07:35;;;;;;;5.35;3.45;;;;;;;9.40;79.45;100214.20;1628113;86;27971;-65
2021/05/27 01:10:02;;;;;;;5.15;3.30;;;;;;;9.39;79.42;100217.82;1618943;86;27235;-65
2021/05/27 01:12:27;;;;;;;5.28;3.10;;;;;;;9.39;79.44;100215.14;1626498;86;25738;-64
2021/05/27 01:17:38;;;;;;;8.28;3.40;;;;;;;9.38;79.51;100218.75;1625235;86;25630;-64
2021/05/27 01:20:11;;;;;;;8.33;3.10;;;;;;;9.36;79.56;100222.44;1620589;86;27427;-65
2021/05/27 01:22:39;;;;;;;8.83;3.45;;;;;;;9.36;79.56;100225.98;1638059;86;25709;-65
2021/05/27 01:25:14;;;;;;;8.15;4.20;;;;;;;9.38;79.56;100231.27;1621806;86;26011;-65
2021/05/27 01:27:40;;;;;;;6.35;3.85;;;;;;;9.38;79.60;100229.92;1619915;86;25756;-65
2021/05/27 01:30:10;;;;;;;7.20;3.85;;;;;;;9.38;79.61;100232.59;1623670;86;25600;-65
2021/05/27 01:32:37;;;;;;;9.63;4.53;;;;;;;9.38;79.61;100233.47;1624590;86;27963;-65
2021/05/27 01:35:10;;;;;;;9.63;4.75;;;;;;;9.37;79.65;100233.06;1631848;86;25700;-65
2021/05/27 01:37:37;;;;;;;5.58;3.50;;;;;;;9.38;79.73;100240.16;1617930;86;26361;-65
2021/05/27 01:40:06;;;;;;;6.20;3.55;;;;;;;9.37;79.71;100237.55;1619729;86;25831;-65
2021/05/27 01:42:32;;;;;;;7.03;3.50;;;;;;;9.37;79.74;100237.55;1635107;85;26476;-64
2021/05/27 01:44:58;;;;;;;10.20;4.00;;;;;;;9.37;79.81;100242.43;1655201;84;27305;-64
2021/05/27 01:47:23;;;;;;;7.95;4.33;;;;;;;9.36;79.79;100239.36;1652538;84;25781;-64
2021/05/27 01:49:51;;;;;;;9.43;4.47;;;;;;;9.37;79.87;100242.43;1614883;86;25704;-65
2021/05/27 01:52:17;;;;;;;8.05;4.20;;;;;;;9.36;79.92;100241.16;1651703;84;25623;-64
2021/05/27 01:54:43;;;;;;;8.10;4.30;;;;;;;9.36;79.88;100250.52;1655638;84;25696;-64
2021/05/27 01:57:09;;;;;;;7.28;3.98;;;;;;;9.34;79.92;100243.91;1645731;84;27393;-65
2021/05/27 01:59:37;;;;;;;11.53;4.42;;;;;;;9.33;79.97;100240.83;1662078;84;25731;-64
2021/05/27 02:02:02;;;;;;;9.08;3.70;;;;;;;9.34;79.98;100241.70;1657354;84;25749;-65
2021/05/27 02:04:30;;;;;;;10.23;5.00;;;;;;;9.33;80.08;100245.31;1664388;84;26054;-65
2021/05/27 02:06:57;;;;;;;6.75;3.58;;;;;;;9.33;80.06;100243.50;1654355;84;25711;-65
2021/05/27 02:09:22;;;;;;;5.72;3.67;;;;;;;9.33;80.06;100250.66;1655159;84;27435;-65
2021/05/27 02:11:50;;;;;;;12.10;4.37;;;;;;;9.31;80.13;100246.72;1649441;85;25699;-65
2021/05/27 02:14:19;;;;;;;7.15;3.67;;;;;;;9.33;80.19;100247.98;1643773;84;25708;-65
2021/05/27 02:16:45;;;;;;;8.25;3.55;;;;;;;9.32;80.16;100246.25;1648588;84;25768;-65
2021/05/27 02:19:13;;;;;;;6.37;3.92;;;;;;;9.30;80.21;100244.98;1613397;86;25738;-65
2021/05/27 02:21:41;;;;;;;6.35;3.30;;;;;;;9.30;80.26;100250.80;1654236;84;27421;-65
2021/05/27 02:24:09;;;;;;;3.95;2.72;;;;;;;9.28;80.27;100256.68;1650895;84;27098;-65
2021/05/27 02:26:36;;;;;;;4.97;3.45;;;;;;;9.27;80.42;100250.93;1656593;84;26733;-65
2021/05/27 02:29:04;;;;;;;6.85;3.40;;;;;;;9.25;80.48;100255.48;1646356;84;25787;-65
2021/05/27 02:31:32;;;;;;;5.35;3.50;;;;;;;9.24;80.51;100253.74;1648273;84;25624;-65
2021/05/27 02:34:00;;;;;;;4.50;3.47;;;;;;;9.24;80.68;100260.42;1659941;84;27918;-65
2021/05/27 02:36:27;;;;;;;5.55;3.60;;;;;;;9.21;80.74;100260.09;1651410;84;26013;-65
2021/05/27 02:38:54;;;;;;;7.78;3.55;;;;;;;9.21;80.92;100262.77;1653108;84;25710;-65
2021/05/27 02:41:23;;;;;;;8.68;4.10;;;;;;;9.13;80.99;100246.66;1618052;86;26178;-65
2021/05/27 02:43:52;;;;;;;8.65;4.42;;;;;;;9.18;81.04;100256.69;1636975;84;25629;-65
2021/05/27 02:46:19;;;;;;;5.72;4.47;;;;;;;9.18;81.11;100248.19;1655638;84;25719;-65
2021/05/27 02:48:46;;;;;;;7.78;4.33;;;;;;;9.18;81.08;100257.55;1653989;84;26561;-65
2021/05/27 02:51:12;;;;;;;5.33;4.40;;;;;;;9.18;81.13;100254.88;1637791;85;25615;-65
2021/05/27 02:53:38;;;;;;;10.05;4.55;;;;;;;9.19;81.12;100263.30;1638707;84;25767;-65
2021/05/27 02:56:05;;;;;;;7.15;4.72;;;;;;;9.19;81.20;100257.95;1644932;84;25613;-65
2021/05/27 02:58:30;;;;;;;10.82;5.75;;;;;;;9.20;81.33;100263.70;1659470;85;27527;-64
2021/05/27 03:00:56;;;;;;;6.90;5.15;;;;;;;9.19;81.54;100265.97;1664748;84;25725;-65
2021/05/27 03:03:22;;;;;;;8.35;5.25;;;;;;;9.22;81.38;100268.52;1652953;85;25625;-64
2021/05/27 03:05:49;;;;;;;5.70;4.80;;;;;;;9.23;81.41;100271.59;1647041;84;25725;-65
2021/05/27 03:08:16;;;;;;;9.30;4.97;;;;;;;9.26;81.53;100275.47;1632720;84;26473;-64
2021/05/27 03:10:43;;;;;;;8.00;5.67;;;;;;;9.28;81.46;100277.61;1653116;85;27417;-65
2021/05/27 03:13:09;;;;;;;8.00;5.30;;;;;;;9.31;81.67;100276.61;1664728;84;26017;-64
2021/05/27 03:15:37;;;;;;;9.93;6.37;;;;;;;9.32;81.60;100277.87;1650636;84;26384;-64
2021/05/27 03:18:08;;;;;;;10.32;6.20;;;;;;;9.33;81.60;100274.27;1664820;84;25827;-65
2021/05/27 03:20:38;;;;;;;7.35;6.37;;;;;;;9.37;81.60;100280.34;1637487;84;25686;-65
2021/05/27 03:23:05;;;;;;;16.73;6.95;;;;;;;9.38;81.65;100282.95;1650575;85;26793;-65
2021/05/27 03:25:33;;;;;;;14.68;6.92;;;;;;;9.39;81.72;100279.34;1649179;84;27144;-65
2021/05/27 03:28:02;;;;;;;10.45;6.42;;;;;;;9.41;81.69;100295.32;1656385;84;26340;-64
2021/05/27 03:30:28;;;;;;;8.90;6.70;;;;;;;9.43;81.73;100292.11;1651409;84;25878;-64
2021/05/27 03:32:55;;;;;;;9.55;7.05;;;;;;;9.44;81.68;100301.41;1629427;85;25805;-64
2021/05/27 03:35:21;;;;;;;8.15;7.08;;;;;;;9.46;81.78;100288.44;1665779;84;25779;-64
2021/05/27 03:37:48;;;;;;;10.60;7.30;;;;;;;9.46;81.81;100295.98;1640171;84;27193;-64
2021/05/27 03:40:18;;;;;;;11.73;7.37;;;;;;;9.47;81.84;100287.49;1662988;84;26238;-64
2021/05/27 03:42:53;;;;;;;7.67;6.45;;;;;;;9.47;81.87;100288.36;1648889;84;25869;-64
2021/05/27 03:45:31;;;;;;;10.00;7.17;;;;;;;9.48;81.87;100288.77;1632765;84;25631;-65
2021/05/27 03:47:58;;;;;;;7.75;6.90;;;;;;;9.51;81.89;100291.77;1653480;84;27453;-65
2021/05/27 03:50:29;;;;;;;7.72;6.75;;;;;;;9.51;81.89;100294.45;1644531;84;25597;-65
2021/05/27 03:52:57;;;;;;;11.68;7.40;;;;;;;9.54;81.95;100302.34;1658743;84;25725;-65
2021/05/27 03:55:24;;;;;;;9.80;6.62;;;;;;;9.55;82.13;100303.61;1658672;84;25701;-65
2021/05/27 03:57:53;;;;;;;14.30;7.22;;;;;;;9.56;82.01;100312.03;1649057;84;25724;-64
2021/05/27 04:00:42;;;;;;;8.68;7.20;;;;;;;9.56;82.07;100313.38;1650144;84;27358;-65
2021/05/27 04:03:11;;;;;;;7.47;6.67;;;;;;;9.59;82.09;100317.25;1622023;86;25703;-65
2021/05/27 04:08:05;;;;;;;6.92;6.20;;;;;;;9.63;82.05;100320.19;1630429;84;25802;-65
2021/05/27 04:10:32;;;;;;;7.78;6.12;;;;;;;9.64;82.07;100321.92;1652862;84;25761;-65
2021/05/27 04:12:59;;;;;;;7.33;6.40;;;;;;;9.64;82.08;100331.30;1657341;84;27879;-65
2021/05/27 04:15:32;;;;;;;8.08;6.72;;;;;;;9.66;82.12;100327.21;1662910;84;25700;-64
2021/05/27 04:18:10;;;;;;;6.90;6.15;;;;;;;9.65;82.15;100339.72;1661566;84;25788;-64
2021/05/27 04:20:45;;;;;;;14.75;6.60;;;;;;;9.67;82.20;100345.87;1639009;84;25802;-65
2021/05/27 04:23:16;;;;;;;8.78;7.40;;;;;;;9.69;82.24;100341.80;1647993;84;25317;-65
2021/05/27 04:25:42;;;;;;;9.10;7.85;;;;;;;9.69;82.30;100347.14;1650551;84;27451;-65
2021/05/27 04:28:09;;;;;;;12.33;7.75;;;;;;;9.69;82.29;100348.48;1654929;84;26364;-65
2021/05/27 04:33:23;;;;;;;10.65;6.78;;;;;;;9.72;82.31;100356.38;1650808;84;27851;-65
2021/05/27 04:35:49;;;;;;;8.68;6.75;;;;;;;9.72;82.32;100361.26;1639807;84;25620;-65
2021/05/27 04:38:16;;;;;;;8.15;6.45;;;;;;;9.72;82.29;100368.42;1655545;84;25610;-64
2021/05/27 04:40:48;;;;;;;7.60;6.25;;;;;;;9.70;82.22;100371.63;1648948;84;25684;-66
2021/05/27 04:43:16;;;;;;;;;;;;;;;9.67;82.22;100366.41;1653404;84;25669;-65
2021/05/27 04:45:41;;;;;;;10.25;6.15;;;;;;;9.62;82.19;100368.42;1678220;84;25799;-67
2021/05/27 04:48:13;;;;;;;6.80;5.90;;;;;;;9.62;82.25;100377.79;1664326;84;25697;-67
2021/05/27 04:50:41;;;;;;;7.42;5.62;;;;;;;9.60;82.29;100375.18;1660514;84;27264;-64
2021/05/27 04:53:10;;;;;;;6.10;5.50;;;;;;;9.58;82.22;100388.22;1660385;84;26439;-66
2021/05/27 04:55:37;;;;;;;6.78;5.40;;;;;;;9.57;82.21;100380.66;1662868;84;26461;-66
2021/05/27 04:58:06;;;;;;;6.15;5.55;;;;;;;9.57;82.18;100389.16;1669158;84;25712;-66
2021/05/27 05:00:34;;;;;;;5.92;5.37;;;;;;;9.54;82.07;100378.12;1662108;84;25717;-67
2021/05/27 05:03:02;;;;;;;7.25;5.75;;;;;;;9.56;82.00;100382.07;1665272;84;27385;-66
2021/05/27 05:05:30;;;;;;;8.28;5.97;;;;;;;9.57;81.93;100386.02;1662917;84;26099;-66
2021/05/27 05:07:57;;;;;;;8.55;6.10;;;;;;;9.62;81.91;100391.17;1665071;84;25685;-65
2021/05/27 05:10:26;;;;;;;8.23;6.22;;;;;;;9.68;81.83;100400.27;1653067;84;25780;-65
2021/05/27 05:12:53;;;;;;;6.33;5.72;;;;;;;9.70;81.74;100402.41;1666715;84;25699;-65
2021/05/27 05:19:34;;;;;;;6.85;5.50;;;;;;;9.69;81.66;100400.20;1661723;84;25694;-65
2021/05/27 05:22:01;;;;;;;8.98;6.60;;;;;;;9.73;81.67;100396.92;1660083;84;25682;-66
2021/05/27 05:24:28;;;;;;;7.95;5.20;;;;;;;9.85;81.57;100395.52;1661933;84;27909;-65
2021/05/27 05:26:54;;;;;;;7.75;6.20;;;;;;;9.94;81.50;100401.33;1655855;84;25955;-65
2021/05/27 05:29:21;;;;;;;7.80;6.15;;;;;;;9.99;81.14;100406.48;1666538;84;27452;-65
2021/05/27 05:31:48;;;;;;;7.72;6.42;;;;;;;9.99;81.14;100403.33;1659048;84;27189;-65
2021/05/27 05:34:15;;;;;;;9.28;7.05;;;;;;;9.98;81.10;100410.09;1663379;84;25664;-65
2021/05/27 05:36:42;;;;;;;7.45;6.65;;;;;;;9.92;80.90;100408.56;1657756;84;25666;-65
2021/05/27 05:39:10;;;;;;;13.13;6.67;;;;;;;9.87;80.88;100407.89;1659471;84;25564;-65
2021/05/27 05:41:42;;;;;;;7.67;6.97;;;;;;;9.86;80.88;100412.84;1656225;84;27773;-65
2021/05/27 05:44:08;;;;;;;7.60;6.40;;;;;;;9.88;80.84;100415.45;1659538;84;26378;-65
2021/05/27 05:46:34;;;;;;;12.25;7.95;;;;;;;9.92;80.72;100417.06;1658121;84;25703;-66
2021/05/27 05:49:02;;;;;;;10.15;8.45;;;;;;;9.91;80.66;100420.20;1661568;84;25784;-65
2021/05/27 05:51:28;;;;;;;9.40;8.25;;;;;;;9.94;80.64;100426.77;1654179;84;25660;-65
2021/05/27 05:53:54;;;;;;;9.08;7.62;;;;;;;9.93;80.54;100431.72;1659056;84;27332;-65
2021/05/27 05:56:20;;;;;;;13.05;8.50;;;;;;;9.90;80.38;100429.17;1656392;84;26445;-65
2021/05/27 05:58:46;;;;;;;10.45;8.35;;;;;;;9.88;80.45;100440.42;1665604;84;25761;-65
2021/05/27 06:01:15;;;;;;;9.35;8.20;;;;;;;9.85;80.28;100437.88;1660589;84;25876;-66
2021/05/27 06:03:41;;;;;;;11.45;7.50;;;;;;;9.81;80.22;100442.96;1659389;84;25656;-65
2021/05/27 06:06:12;;;;;;;11.73;8.00;;;;;;;9.85;80.18;100450.39;1655425;84;28151;-66
2021/05/27 06:08:38;;;;;;;12.95;8.43;;;;;;;9.82;80.07;100446.04;1659445;84;25711;-66
2021/05/27 06:11:04;;;;;;;9.63;8.18;;;;;;;9.80;79.94;100450.59;1667684;84;25668;-65
2021/05/27 06:13:30;;;;;;;11.85;7.75;;;;;;;9.81;79.89;100460.83;1660078;84;26254;-67
2021/05/27 06:15:56;;;;;;;9.65;7.75;;;;;;;9.87;79.81;100459.22;1647898;84;26374;-66
2021/05/27 06:18:22;;;;;;;12.23;8.18;;;;;;;9.89;79.67;100457.35;1655961;84;27383;-66
2021/05/27 06:20:47;;;;;;;12.55;7.40;;;;;;;9.93;79.52;100469.20;1657543;84;25970;-68
2021/05/27 06:23:15;;;;;;;12.98;6.78;;;;;;;9.92;79.30;100455.41;1659617;84;26218;-67
2021/05/27 06:25:41;;;;;;;14.65;8.73;;;;;;;9.94;79.39;100458.02;1663067;84;26673;-66
2021/05/27 06:28:08;;;;;;;12.47;7.83;;;;;;;10.01;79.36;100461.70;1658666;84;26373;-67
2021/05/27 06:30:35;;;;;;;11.80;7.17;;;;;;;10.07;79.35;100463.23;1653752;84;27350;-64
2021/05/27 06:33:03;;;;;;;8.35;7.45;;;;;;;10.17;79.26;100463.70;1660553;84;25822;-66
2021/05/27 06:35:30;;;;;;;8.78;7.37;;;;;;;10.26;79.27;100463.33;1660896;84;26710;-66
2021/05/27 06:37:56;;;;;;;10.50;7.17;;;;;;;10.33;79.23;100462.98;1651385;84;26329;-67
2021/05/27 06:40:25;;;;;;;13.43;6.83;;;;;;;10.36;79.05;100464.66;1657265;84;25744;-66
2021/05/27 06:42:51;;;;;;;10.80;7.17;;;;;;;10.37;79.05;100458.36;1665262;84;27459;-65
2021/05/27 06:45:21;;;;;;;12.10;7.17;;;;;;;10.46;79.04;100460.58;1665534;84;25713;-66
2021/05/27 06:47:49;;;;;;;9.00;6.87;;;;;;;10.53;78.99;100459.36;1642394;85;26378;-65
2021/05/27 06:53:07;;;;;;;12.73;7.22;;;;;;;10.74;78.77;100478.47;1646284;85;25554;-66
2021/05/27 06:55:35;;;;;;;8.85;6.12;;;;;;;10.90;78.46;100492.02;1644260;85;29514;-67
2021/05/27 06:58:02;;;;;;;9.03;6.30;;;;;;;10.96;78.18;100481.02;1646203;85;25720;-67
2021/05/27 07:00:29;;;;;;;9.65;7.00;;;;;;;11.05;78.16;100482.38;1646239;85;25645;-66
2021/05/27 07:02:56;;;;;;;16.17;8.13;;;;;;;11.17;78.06;100483.14;1648714;85;25724;-66
2021/05/27 07:05:24;;;;;;;11.75;7.03;;;;;;;11.27;77.81;100472.83;1643926;84;25838;-66
2021/05/27 07:07:51;;;;;;;9.85;7.33;;;;;;;11.32;77.71;100473.00;1645306;84;27960;-66
2021/05/27 07:10:18;;;;;;;8.28;6.80;;;;;;;11.34;77.48;100465.74;1647585;85;25822;-66
2021/05/27 07:12:53;;;;;;;12.03;6.67;;;;;;;11.39;77.55;100470.41;1650162;85;25587;-65
2021/05/27 07:15:22;;;;;;;11.43;6.62;;;;;;;11.52;77.65;100474.70;1646135;85;27763;-66
2021/05/27 07:17:54;;;;;;;12.78;5.97;;;;;;;11.65;77.32;100478.98;1648777;85;25648;-67
2021/05/27 07:20:24;;;;;;;8.23;6.17;;;;;;;11.84;77.26;100486.53;1642485;85;27346;-67
2021/05/27 07:22:52;;;;;;;11.83;7.15;;;;;;;11.99;76.87;100492.46;1633723;84;26025;-66
2021/05/27 07:25:23;;;;;;;11.40;6.22;;;;;;;12.07;76.40;100493.88;1604639;85;25717;-69
2021/05/27 07:27:51;;;;;;;9.20;5.67;;;;;;;12.11;76.17;100483.38;1611798;86;25737;-65
2021/05/27 07:30:21;;;;;;;7.47;5.30;;;;;;;12.14;76.14;100489.45;1605501;87;26467;-65
2021/05/27 07:32:48;;;;;;;6.58;4.80;;;;;;;12.22;76.08;100490.39;1613822;87;27927;-67
2021/05/27 07:35:15;;;;;;;7.83;4.97;;;;;;;12.36;75.20;100495.91;1606902;87;26445;-66
2021/05/27 07:37:43;;;;;;;6.50;4.87;;;;;;;12.47;75.49;100496.69;1614239;87;26406;-66
2021/05/27 07:40:14;;;;;;;9.58;4.58;;;;;;;12.54;74.99;100486.86;1652060;85;27885;-66
2021/05/27 07:42:42;;;;;;;8.77;3.90;;;;;;;12.68;74.71;100501.77;1639140;84;26382;-65
2021/05/27 07:45:08;;;;;;;5.62;4.08;;;;;;;12.74;74.18;100488.95;1644735;85;27482;-65
2021/05/27 07:47:34;;;;;;;7.62;4.10;;;;;;;12.73;73.68;100496.62;1643622;85;25808;-65
2021/05/27 07:50:04;;;;;;;5.80;4.22;;;;;;;12.78;73.25;100487.83;1650734;85;26577;-65
2021/05/27 07:52:30;;;;;;;5.50;4.90;;;;;;;12.77;73.05;100496.84;1649141;85;27806;-65
2021/05/27 07:54:58;;;;;;;8.20;4.70;;;;;;;12.82;73.08;100492.09;1657182;85;25333;-67
2021/05/27 07:57:24;;;;;;;8.80;4.72;;;;;;;12.81;72.81;100495.25;1650415;84;27372;-66
2021/05/27 07:59:51;;;;;;;6.58;4.78;;;;;;;12.90;73.03;100489.36;1659056;84;25687;-65
2021/05/27 08:02:18;;;;;;;5.80;5.17;;;;;;;13.08;72.74;100500.02;1648974;84;25679;-65
2021/05/27 08:04:44;;;;;;;8.63;4.53;;;;;;;13.18;72.50;100507.53;1653013;85;25650;-66
2021/05/27 08:07:12;;;;;;;9.23;4.25;;;;;;;13.16;72.31;100504.50;1648375;84;25689;-65
2021/05/27 08:09:39;;;;;;;6.97;4.17;;;;;;;13.22;72.27;100496.98;1643473;85;27432;-66
2021/05/27 08:12:07;;;;;;;6.00;4.45;;;;;;;13.29;72.02;100502.41;1617472;86;25771;-65
2021/05/27 08:14:33;;;;;;;8.05;4.83;;;;;;;13.37;71.84;100510.53;1653397;84;25682;-65
2021/05/27 08:17:01;;;;;;;5.85;4.20;;;;;;;13.44;71.29;100513.26;1648995;85;25781;-65
2021/05/27 08:19:29;;;;;;;8.03;4.08;;;;;;;13.36;71.00;100514.17;1650941;85;25286;-65
2021/05/27 08:21:57;;;;;;;9.50;3.98;;;;;;;13.28;70.96;100511.91;1643993;85;25760;-65
2021/05/27 08:24:25;;;;;;;6.12;4.20;;;;;;;13.20;70.68;100518.20;1643635;85;26035;-66
2021/05/27 08:26:51;;;;;;;4.67;4.15;;;;;;;13.11;70.58;100514.17;1652333;85;25634;-65
2021/05/27 08:29:17;;;;;;;4.25;3.67;;;;;;;13.16;70.54;100520.20;1654848;84;25845;-65
2021/05/27 08:31:44;;;;;;;12.95;3.98;;;;;;;13.20;70.59;100523.11;1642879;85;25640;-66
2021/05/27 08:34:12;;;;;;;6.30;3.90;;;;;;;13.19;70.08;100521.38;1644385;84;27520;-65
2021/05/27 08:36:39;;;;;;;4.95;4.22;;;;;;;13.11;70.08;100530.32;1653929;84;25680;-65
2021/05/27 08:39:08;;;;;;;11.22;4.15;;;;;;;13.15;70.40;100522.95;1648602;85;25828;-65
2021/05/27 08:41:36;;;;;;;6.60;4.05;;;;;;;13.29;70.47;100516.34;1649776;85;26373;-65
2021/05/27 08:44:05;;;;;;;6.95;4.00;;;;;;;13.42;70.32;100524.12;1650954;84;25972;-65
2021/05/27 08:46:32;;;;;;;3.95;3.65;;;;;;;13.52;70.44;100521.77;1652302;84;27358;-66
2021/05/27 08:48:59;;;;;;;4.15;3.02;;;;;;;13.60;70.16;100527.58;1646824;84;26064;-65
2021/05/27 08:51:33;;;;;;;5.05;3.47;;;;;;;13.65;70.01;100526.36;1654724;84;26273;-66
2021/05/27 08:53:56;;;;;;;7.80;3.52;;;;;;;13.64;69.59;100534.05;1650038;84;26453;-66
2021/05/27 08:56:22;;;;;;;4.25;3.52;;;;;;;13.75;69.70;100537.95;1650694;84;25578;-66
2021/05/27 08:58:49;;;;;;;5.75;3.45;;;;;;;13.74;68.88;100530.34;1648633;85;27455;-66
2021/05/27 09:01:20;;;;;;;4.75;3.50;;;;;;;13.74;68.86;100537.08;1614196;85;25891;-66
2021/05/27 09:03:46;;;;;;;4.37;3.30;;;;;;;13.78;68.46;100539.98;1647041;84;26128;-66
2021/05/27 09:06:14;;;;;;;6.42;3.30;;;;;;;13.81;68.57;100536.23;1650227;84;25784;-66
2021/05/27 09:08:41;;;;;;;4.53;3.22;;;;;;;13.84;68.30;100536.06;1650438;85;25751;-65
2021/05/27 09:11:20;;;;;;;3.47;3.10;;;;;;;13.84;67.88;100549.05;1648327;84;27462;-65
2021/05/27 09:13:58;;;;;;;5.62;4.28;;;;;;;13.76;68.14;100554.02;1647480;84;25674;-65
2021/05/27 09:16:27;;;;;;;4.67;4.12;;;;;;;13.68;67.35;100548.20;1645353;84;25671;-65
2021/05/27 09:18:54;;;;;;;7.50;4.10;;;;;;;13.54;67.35;100556.20;1642522;84;25818;-65
2021/05/27 09:21:38;;;;;;;6.58;3.60;;;;;;;13.62;66.87;100559.33;1649437;84;25720;-65
2021/05/27 09:24:04;;;;;;;4.83;3.50;;;;;;;13.66;67.44;100566.28;1653188;85;27436;-66
2021/05/27 09:26:32;;;;;;;5.10;3.62;;;;;;;13.68;66.96;100552.24;1617466;86;25833;-65
2021/05/27 09:29:14;;;;;;;6.17;3.77;;;;;;;13.68;66.44;100553.59;1653158;84;25692;-64
2021/05/27 09:32:06;;;;;;;5.08;3.65;;;;;;;13.71;66.77;100557.94;1640769;84;25788;-66
2021/05/27 09:34:47;;;;;;;4.53;4.00;;;;;;;13.76;66.87;100551.33;1652683;85;25673;-66
2021/05/27 09:37:32;;;;;;;4.37;3.92;;;;;;;13.93;66.78;100548.52;1647456;84;27469;-65
2021/05/27 09:40:00;;;;;;;4.47;3.20;;;;;;;14.02;66.68;100552.97;1648382;85;25724;-66
2021/05/27 09:42:28;;;;;;;4.55;3.08;;;;;;;14.00;66.44;100554.89;1655983;84;25836;-66
2021/05/27 09:44:56;;;;;;;7.47;2.30;;;;;;;14.12;66.63;100557.73;1654048;84;25998;-66
2021/05/27 09:47:36;;;;;;;6.12;2.90;;;;;;;14.26;66.23;100563.16;1652492;84;25494;-67
2021/05/27 09:50:09;;;;;;;5.80;3.00;;;;;;;14.32;66.40;100555.19;1653331;85;27433;-68
2021/05/27 09:52:45;;;;;;;3.90;2.87;;;;;;;14.42;66.25;100555.06;1662598;85;25680;-64
2021/05/27 09:55:17;;;;;;;4.33;2.85;;;;;;;14.37;65.69;100559.83;1655813;84;25798;-65
2021/05/27 09:57:47;;;;;;;3.50;2.85;;;;;;;14.26;65.77;100565.00;1648475;84;26466;-67
2021/05/27 10:00:27;;;;;;;4.92;3.10;;;;;;;14.06;65.62;100559.44;1652950;84;25791;-65
2021/05/27 10:02:56;;;;;;;;;;;;;;;13.92;65.85;100568.33;1652258;84;28157;-65
2021/05/27 10:05:22;;;;;;;3.90;2.55;;;;;;;13.76;65.59;100564.80;1647193;85;25693;-65
2021/05/27 10:07:53;;;;;;;5.72;3.40;;;;;;;13.63;65.76;100571.84;1647951;84;25779;-66
2021/05/27 10:10:21;;;;;;;;;;;;;;;13.67;66.01;100567.14;1652659;84;25809;-66
2021/05/27 10:12:51;;;;;;;5.03;3.00;;;;;;;13.73;66.05;100569.02;1657374;84;25710;-65
2021/05/27 10:15:25;;;;;;;4.40;2.90;;;;;;;13.71;66.00;100567.36;1646298;85;27970;-65
2021/05/27 10:17:53;;;;;;;7.92;3.45;;;;;;;13.71;66.07;100576.79;1648928;84;25902;-65
2021/05/27 10:20:22;;;;;;;8.80;3.40;;;;;;;13.65;65.85;100569.92;1647538;84;25799;-64
2021/05/27 10:22:48;;;;;;;3.98;3.08;;;;;;;13.67;65.83;100573.41;1649012;84;26279;-64
2021/05/27 10:25:18;;;;;;;4.65;3.20;;;;;;;13.73;65.63;100566.31;1619984;86;25740;-65
2021/05/27 10:27:50;;;;;;;8.58;3.62;;;;;;;13.85;65.67;100564.73;1644154;85;27335;-65
2021/05/27 10:30:19;;;;;;;6.97;3.27;;;;;;;14.07;65.93;100561.18;1619678;86;25740;-66
2021/05/27 10:32:52;;;;;;;6.37;2.80;;;;;;;14.42;66.07;100547.45;1652955;84;25913;-66
2021/05/27 10:35:20;;;;;;;6.25;3.58;;;;;;;14.77;65.75;100555.59;1647366;84;25808;-65
2021/05/27 10:37:52;;;;;;;4.90;3.22;;;;;;;14.89;65.03;100553.96;1647566;85;25785;-65
2021/05/27 10:40:23;;;;;;;2.85;2.62;;;;;;;14.94;65.07;100548.66;1621868;86;27694;-65
2021/05/27 10:43:07;;;;;;;2.45;2.25;;;;;;;15.02;64.46;100557.62;1651478;85;25693;-67
2021/05/27 10:45:33;;;;;;;5.00;3.35;;;;;;;15.09;64.55;100557.62;1616919;86;25695;-65
2021/05/27 10:48:24;;;;;;;5.33;3.15;;;;;;;15.24;64.63;100552.59;1648279;84;25964;-65
2021/05/27 10:53:44;;;;;;;2.40;1.85;;;;;;;15.22;64.21;100563.11;1652067;84;28356;-66
2021/05/27 10:56:16;;;;;;;5.45;2.27;;;;;;;15.16;63.88;100557.62;1648962;84;26378;-65
2021/05/27 10:58:57;;;;;;;5.25;2.20;;;;;;;15.06;63.52;100559.64;1647306;84;25984;-65
2021/05/27 11:01:35;;;;;;;2.67;2.33;;;;;;;15.02;62.96;100563.02;1650967;84;25783;-65
2021/05/27 11:04:22;;;;;;;3.10;1.98;;;;;;;14.99;63.33;100567.75;1648749;84;25646;-64
2021/05/27 11:06:49;;;;;;;3.35;2.05;;;;;;;15.13;63.40;100570.44;1649058;84;27518;-63
2021/05/27 11:09:30;;;;;;;3.60;1.80;;;;;;;15.25;63.19;100569.18;1648422;85;25822;-64
2021/05/27 11:12:23;;;;;;;3.80;2.17;;;;;;;15.42;62.82;100573.98;1651623;85;25661;-64
2021/05/27 11:15:06;;;;;;;2.83;2.20;;;;;;;15.49;62.53;100564.52;1642380;84;25754;-64
2021/05/27 11:17:32;;;;;;;6.47;2.27;;;;;;;15.49;61.34;100568.56;1649503;84;25709;-64
2021/05/27 11:20:12;;;;;;;4.47;3.42;;;;;;;15.51;62.01;100561.23;1615622;86;29460;-64
2021/05/27 11:25:17;;;;;;;2.72;1.67;;;;;;;15.49;61.86;100561.33;1649589;84;25801;-64
2021/05/27 11:28:07;;;;;;;8.95;2.62;;;;;;;15.38;61.59;100574.66;1651437;84;25726;-65
2021/05/27 11:30:44;;;;;;;3.30;1.70;;;;;;;15.28;61.47;100561.37;1649371;85;25680;-64
2021/05/27 11:33:22;;;;;;;7.10;1.45;;;;;;;15.25;61.70;100561.08;1656298;84;27355;-65
2021/05/27 11:35:53;;;;;;;1.95;1.55;;;;;;;15.23;60.53;100568.89;1647132;84;26110;-65
2021/05/27 11:38:26;;;;;;;7.25;1.62;;;;;;;15.21;60.75;100573.52;1617414;86;25763;-65
2021/05/27 11:40:58;;;;;;;2.95;1.72;;;;;;;15.39;60.85;100562.03;1649186;85;26234;-65
2021/05/27 11:43:41;;;;;;;;;;;;;;;15.64;60.18;100562.65;1649170;84;26530;-65
2021/05/27 11:46:26;;;;;;;3.35;1.45;;;;;;;15.71;60.62;100554.52;1651553;85;27461;-64
2021/05/27 11:51:22;;;;;;;2.98;1.62;;;;;;;15.77;59.95;100556.34;1652384;85;26446;-65
2021/05/27 11:53:58;;;;;;;1.62;1.52;;;;;;;15.81;59.89;100550.25;1648255;84;26074;-64
2021/05/27 11:56:35;;;;;;;2.17;1.55;;;;;;;15.76;59.56;100557.30;1618377;86;26370;-64
2021/05/27 11:59:03;;;;;;;3.42;2.02;;;;;;;15.59;59.19;100550.83;1613798;87;28835;-65
2021/05/27 12:01:32;;;;;;;3.58;2.52;;;;;;;15.65;59.11;100546.34;1601466;87;27230;-65